createdAt,value
2023-04-30T00:00:39.296Z,16.25
2023-04-30T00:03:05.947Z,16.24
2023-04-30T00:05:32.667Z,16.26
2023-04-30T00:07:59.235Z,16.28
2023-04-30T00:10:26.116Z,16.30
2023-04-30T00:12:52.648Z,16.27
2023-04-30T00:15:19.242Z,16.20
2023-04-30T00:17:45.765Z,16.27
2023-04-30T00:20:13.322Z,16.26
2023-04-30T00:22:39.819Z,16.26
2023-04-30T00:25:06.673Z,16.25
2023-04-30T00:27:33.081Z,16.27
2023-04-30T00:30:00.156Z,16.28
2023-04-30T00:32:26.697Z,16.30
2023-04-30T00:34:53.332Z,16.38
2023-04-30T00:37:19.871Z,16.22
2023-04-30T00:39:46.400Z,16.36
2023-04-30T00:42:12.947Z,16.13
2023-04-30T00:44:39.822Z,16.20
2023-04-30T00:47:06.349Z,16.27
2023-04-30T00:49:33.317Z,16.30
2023-04-30T00:51:59.812Z,16.27
2023-04-30T00:54:26.424Z,16.26
2023-04-30T00:56:52.958Z,16.22
2023-04-30T00:59:19.579Z,16.22
2023-04-30T01:01:46.248Z,16.21
2023-04-30T01:04:12.862Z,16.07
2023-04-30T01:06:39.586Z,16.01
2023-04-30T01:09:06.348Z,16.07
2023-04-30T01:11:57.598Z,15.93
2023-04-30T01:14:36.029Z,15.91
2023-04-30T01:17:09.503Z,15.92
2023-04-30T01:19:45.355Z,15.98
2023-04-30T01:22:32.208Z,16.14
2023-04-30T01:25:18.992Z,16.14
2023-04-30T01:28:01.867Z,15.86
2023-04-30T01:30:29.294Z,15.83
2023-04-30T01:32:55.890Z,15.86
2023-04-30T01:35:33.321Z,15.55
2023-04-30T01:38:13.506Z,15.91
2023-04-30T01:40:52.812Z,15.80
2023-04-30T01:43:39.491Z,15.82
2023-04-30T01:46:19.456Z,15.77
2023-04-30T01:49:18.399Z,15.71
2023-04-30T01:51:47.312Z,15.83
2023-04-30T01:54:41.249Z,15.81
2023-04-30T01:57:13.421Z,15.77
2023-04-30T01:59:41.186Z,15.72
2023-04-30T02:02:08.078Z,15.83
2023-04-30T02:04:34.631Z,15.90
2023-04-30T02:07:01.221Z,15.63
2023-04-30T02:09:27.665Z,15.73
2023-04-30T02:11:54.140Z,15.66
2023-04-30T02:14:20.723Z,15.62
2023-04-30T02:16:47.249Z,15.75
2023-04-30T02:19:13.829Z,15.53
2023-04-30T02:21:40.547Z,15.51
2023-04-30T02:24:07.539Z,15.59
2023-04-30T02:26:34.169Z,15.57
2023-04-30T02:29:00.749Z,15.65
2023-04-30T02:31:27.292Z,15.64
2023-04-30T02:33:53.832Z,15.63
2023-04-30T02:36:20.453Z,15.55
2023-04-30T02:38:47.230Z,15.56
2023-04-30T02:41:13.829Z,15.35
2023-04-30T02:43:40.446Z,15.24
2023-04-30T02:46:07.017Z,14.69
2023-04-30T02:48:33.589Z,15.14
2023-04-30T02:51:00.121Z,15.27
2023-04-30T02:53:26.674Z,15.52
2023-04-30T02:55:53.235Z,15.23
2023-04-30T02:58:19.896Z,15.19
2023-04-30T03:00:46.478Z,15.06
2023-04-30T03:03:13.112Z,15.27
2023-04-30T03:05:39.724Z,15.28
2023-04-30T03:08:06.350Z,15.05
2023-04-30T03:10:32.855Z,15.35
2023-04-30T03:12:59.685Z,15.44
2023-04-30T03:15:26.186Z,15.23
2023-04-30T03:17:52.777Z,15.26
2023-04-30T03:20:19.351Z,15.13
2023-04-30T03:22:45.985Z,15.49
2023-04-30T03:25:12.536Z,15.54
2023-04-30T03:27:39.322Z,15.69
2023-04-30T03:30:07.162Z,15.69
2023-04-30T03:32:33.829Z,15.70
2023-04-30T03:35:00.550Z,15.63
2023-04-30T03:37:26.991Z,15.73
2023-04-30T03:39:53.663Z,15.68
2023-04-30T03:42:20.342Z,15.70
2023-04-30T03:44:47.486Z,15.59
2023-04-30T03:47:14.323Z,15.66
2023-04-30T03:49:40.843Z,15.67
2023-04-30T03:52:07.503Z,15.70
2023-04-30T03:54:33.945Z,15.62
2023-04-30T03:57:04.336Z,15.60
2023-04-30T03:59:31.917Z,15.60
2023-04-30T04:02:00.021Z,15.49
2023-04-30T04:04:26.748Z,15.53
2023-04-30T04:06:53.675Z,15.56
2023-04-30T04:09:20.559Z,15.52
2023-04-30T04:11:47.163Z,15.50
2023-04-30T04:14:13.744Z,15.50
2023-04-30T04:16:42.185Z,15.17
2023-04-30T04:19:09.080Z,15.36
2023-04-30T04:21:36.640Z,15.45
2023-04-30T04:24:08.761Z,15.51
2023-04-30T04:26:36.428Z,15.56
2023-04-30T04:29:04.338Z,15.51
2023-04-30T04:31:34.833Z,15.46
2023-04-30T04:34:03.362Z,15.51
2023-04-30T04:36:30.803Z,15.47
2023-04-30T04:39:01.811Z,15.41
2023-04-30T04:41:32.839Z,15.38
2023-04-30T04:44:00.108Z,15.47
2023-04-30T04:46:28.327Z,15.40
2023-04-30T04:48:55.019Z,15.51
2023-04-30T04:51:21.712Z,15.50
2023-04-30T04:53:48.339Z,15.53
2023-04-30T04:56:15.204Z,15.50
2023-04-30T04:58:42.572Z,15.54
2023-04-30T05:01:09.264Z,15.53
2023-04-30T05:03:38.955Z,15.61
2023-04-30T05:06:06.125Z,15.64
2023-04-30T05:08:32.738Z,15.61
2023-04-30T05:10:59.564Z,15.68
2023-04-30T05:13:26.669Z,15.75
2023-04-30T05:15:53.800Z,15.74
2023-04-30T05:18:20.790Z,15.75
2023-04-30T05:20:47.535Z,15.79
2023-04-30T05:23:14.085Z,15.85
2023-04-30T05:25:40.705Z,15.86
2023-04-30T05:28:07.362Z,15.92
2023-04-30T05:30:33.919Z,15.92
2023-04-30T05:33:00.516Z,15.93
2023-04-30T05:35:27.278Z,15.90
2023-04-30T05:37:53.849Z,15.99
2023-04-30T05:40:20.394Z,16.09
2023-04-30T05:42:47.042Z,15.94
2023-04-30T05:45:14.738Z,16.17
2023-04-30T05:47:41.603Z,16.10
2023-04-30T05:50:09.859Z,16.12
2023-04-30T05:52:36.516Z,16.06
2023-04-30T05:55:03.560Z,16.13
2023-04-30T05:57:30.150Z,15.94
2023-04-30T05:59:57.489Z,15.95
2023-04-30T06:02:24.137Z,16.06
2023-04-30T06:04:51.042Z,16.07
2023-04-30T06:07:17.884Z,15.98
2023-04-30T06:09:44.369Z,16.08
2023-04-30T06:12:11.004Z,16.00
2023-04-30T06:14:37.586Z,16.12
2023-04-30T06:17:04.498Z,16.14
2023-04-30T06:19:31.030Z,16.24
2023-04-30T06:21:57.584Z,16.38
2023-04-30T06:24:27.509Z,16.17
2023-04-30T06:26:54.249Z,16.36
2023-04-30T06:29:20.828Z,16.14
2023-04-30T06:31:47.415Z,16.42
2023-04-30T06:34:13.986Z,16.36
2023-04-30T06:36:40.559Z,16.28
2023-04-30T06:39:07.298Z,16.27
2023-04-30T06:41:33.821Z,16.25
2023-04-30T06:44:00.365Z,16.46
2023-04-30T06:46:27.035Z,16.35
2023-04-30T06:48:53.600Z,16.43
2023-04-30T06:51:20.077Z,16.52
2023-04-30T06:53:46.612Z,16.59
2023-04-30T06:56:13.231Z,16.33
2023-04-30T06:58:39.743Z,16.36
2023-04-30T07:01:06.420Z,16.49
2023-04-30T07:03:34.193Z,16.62
2023-04-30T07:06:00.727Z,16.46
2023-04-30T07:08:27.276Z,16.47
2023-04-30T07:10:53.813Z,16.65
2023-04-30T07:13:20.765Z,16.89
2023-04-30T07:15:47.260Z,16.94
2023-04-30T07:18:13.907Z,16.49
2023-04-30T07:20:40.423Z,16.92
2023-04-30T07:23:06.943Z,16.83
2023-04-30T07:25:34.460Z,16.68
2023-04-30T07:28:01.085Z,16.79
2023-04-30T07:30:27.560Z,17.01
2023-04-30T07:32:54.165Z,16.86
2023-04-30T07:35:20.770Z,16.89
2023-04-30T07:37:48.053Z,16.68
2023-04-30T07:40:25.023Z,17.07
2023-04-30T07:43:01.193Z,17.14
2023-04-30T07:45:27.711Z,17.06
2023-04-30T07:47:54.265Z,17.10
2023-04-30T07:50:20.874Z,17.08
2023-04-30T07:52:49.845Z,17.15
2023-04-30T07:55:16.649Z,17.19
2023-04-30T07:57:43.187Z,17.56
2023-04-30T08:00:09.916Z,17.56
2023-04-30T08:02:39.329Z,17.52
2023-04-30T08:05:06.099Z,17.28
2023-04-30T08:07:33.073Z,17.51
2023-04-30T08:10:00.055Z,17.49
2023-04-30T08:12:27.034Z,17.65
2023-04-30T08:15:01.415Z,17.90
2023-04-30T08:17:28.110Z,17.65
2023-04-30T08:19:54.910Z,17.66
2023-04-30T08:22:22.345Z,17.73
2023-04-30T08:24:49.052Z,17.49
2023-04-30T08:27:16.175Z,17.59
2023-04-30T08:29:42.709Z,17.69
2023-04-30T08:32:09.386Z,17.70
2023-04-30T08:34:36.215Z,17.95
2023-04-30T08:37:02.710Z,17.80
2023-04-30T08:39:29.219Z,18.16
2023-04-30T08:41:56.833Z,18.01
2023-04-30T08:44:24.026Z,18.07
2023-04-30T08:46:54.312Z,18.11
2023-04-30T08:49:24.515Z,18.06
2023-04-30T08:51:52.508Z,17.97
2023-04-30T08:54:19.272Z,18.19
2023-04-30T08:56:46.223Z,18.12
2023-04-30T08:59:13.341Z,18.12
2023-04-30T09:01:41.180Z,18.60
2023-04-30T09:04:08.229Z,18.67
2023-04-30T09:06:35.450Z,18.49
2023-04-30T09:09:18.453Z,18.28
2023-04-30T09:11:44.941Z,18.16
2023-04-30T09:14:11.682Z,18.48
2023-04-30T09:16:47.499Z,18.29
2023-04-30T09:19:24.874Z,18.29
2023-04-30T09:21:51.534Z,18.33
2023-04-30T09:24:18.710Z,18.59
2023-04-30T09:26:47.318Z,18.34
2023-04-30T09:29:14.106Z,18.69
2023-04-30T09:31:44.746Z,18.68
2023-04-30T09:34:11.457Z,19.20
2023-04-30T09:36:38.058Z,18.84
2023-04-30T09:39:17.466Z,19.13
2023-04-30T09:41:44.507Z,18.76
2023-04-30T09:44:31.030Z,18.91
2023-04-30T09:46:58.731Z,18.73
2023-04-30T09:49:26.416Z,18.81
2023-04-30T09:51:57.200Z,19.08
2023-04-30T09:54:29.216Z,19.02
2023-04-30T09:56:58.059Z,18.92
2023-04-30T09:59:30.870Z,19.20
2023-04-30T10:02:02.266Z,19.10
2023-04-30T10:04:36.469Z,19.27
2023-04-30T10:07:08.852Z,19.55
2023-04-30T10:09:40.331Z,19.32
2023-04-30T10:12:09.056Z,19.43
2023-04-30T10:14:35.869Z,19.36
2023-04-30T10:17:09.026Z,19.46
2023-04-30T10:19:41.592Z,19.50
2023-04-30T10:22:08.736Z,19.30
2023-04-30T10:24:35.344Z,19.28
2023-04-30T10:27:03.091Z,19.14
2023-04-30T10:29:29.615Z,19.09
2023-04-30T10:31:56.571Z,19.04
2023-04-30T10:34:30.331Z,19.17
2023-04-30T10:36:59.481Z,19.20
2023-04-30T10:39:30.063Z,19.41
2023-04-30T10:42:04.067Z,18.76
2023-04-30T10:44:35.139Z,19.10
2023-04-30T10:47:02.794Z,19.34
2023-04-30T10:49:29.974Z,19.28
2023-04-30T10:52:00.561Z,19.08
2023-04-30T10:54:29.069Z,19.35
2023-04-30T10:57:10.746Z,19.31
2023-04-30T10:59:37.537Z,19.27
2023-04-30T11:02:04.220Z,19.70
2023-04-30T11:04:30.850Z,19.65
2023-04-30T11:07:10.104Z,19.95
2023-04-30T11:09:41.825Z,19.95
2023-04-30T11:12:16.668Z,19.85
2023-04-30T11:14:44.154Z,19.94
2023-04-30T11:17:12.422Z,19.97
2023-04-30T11:19:52.592Z,19.63
2023-04-30T11:22:23.014Z,19.53
2023-04-30T11:24:50.899Z,19.81
2023-04-30T11:27:28.360Z,19.88
2023-04-30T11:29:56.195Z,19.87
2023-04-30T11:32:25.109Z,20.31
2023-04-30T11:34:51.947Z,20.17
2023-04-30T11:37:26.082Z,20.22
2023-04-30T11:39:52.758Z,20.42
2023-04-30T11:42:19.322Z,20.28
2023-04-30T11:44:45.896Z,20.21
2023-04-30T11:47:15.531Z,20.41
2023-04-30T11:49:42.771Z,19.76
2023-04-30T11:52:09.623Z,19.88
2023-04-30T11:54:37.997Z,19.85
2023-04-30T11:57:05.010Z,20.14
2023-04-30T11:59:32.122Z,19.99
2023-04-30T12:01:58.691Z,20.07
2023-04-30T12:04:26.282Z,19.98
2023-04-30T12:06:52.857Z,20.05
2023-04-30T12:09:19.369Z,19.98
2023-04-30T12:11:47.586Z,20.15
2023-04-30T12:14:15.220Z,20.35
2023-04-30T12:16:49.187Z,20.74
2023-04-30T12:19:20.617Z,20.57
2023-04-30T12:21:58.267Z,20.18
2023-04-30T12:24:27.190Z,20.83
2023-04-30T12:26:54.122Z,20.87
2023-04-30T12:29:22.683Z,20.83
2023-04-30T12:31:49.998Z,20.88
2023-04-30T12:34:17.194Z,20.82
2023-04-30T12:36:43.754Z,20.29
2023-04-30T12:39:18.045Z,20.13
2023-04-30T12:41:46.855Z,20.38
2023-04-30T12:44:17.628Z,20.30
2023-04-30T12:46:46.418Z,20.16
2023-04-30T12:49:33.756Z,20.53
2023-04-30T12:52:07.539Z,20.32
2023-04-30T12:54:34.830Z,20.65
2023-04-30T12:57:12.537Z,20.30
2023-04-30T12:59:40.886Z,20.56
2023-04-30T13:02:08.877Z,20.48
2023-04-30T13:04:36.195Z,20.58
2023-04-30T13:07:03.600Z,20.66
2023-04-30T13:09:31.348Z,20.73
2023-04-30T13:11:57.859Z,20.73
2023-04-30T13:14:24.495Z,20.77
2023-04-30T13:16:51.044Z,20.37
2023-04-30T13:19:17.673Z,20.61
2023-04-30T13:21:44.264Z,20.52
2023-04-30T13:24:10.851Z,19.65
2023-04-30T13:26:37.567Z,20.33
2023-04-30T13:29:04.279Z,20.64
2023-04-30T13:31:31.362Z,20.56
2023-04-30T13:33:57.809Z,20.75
2023-04-30T13:36:24.359Z,21.10
2023-04-30T13:38:50.757Z,21.29
2023-04-30T13:41:17.250Z,21.04
2023-04-30T13:43:44.664Z,21.24
2023-04-30T13:46:11.253Z,21.04
2023-04-30T13:48:38.009Z,20.97
2023-04-30T13:51:04.529Z,21.02
2023-04-30T13:53:31.064Z,20.93
2023-04-30T13:55:59.281Z,20.87
2023-04-30T13:58:26.270Z,21.22
2023-04-30T14:00:52.831Z,21.18
2023-04-30T14:03:19.466Z,21.30
2023-04-30T14:05:46.647Z,21.24
2023-04-30T14:08:13.398Z,20.78
2023-04-30T14:10:39.914Z,20.96
2023-04-30T14:13:06.432Z,21.01
2023-04-30T14:15:32.992Z,20.65
2023-04-30T14:18:00.594Z,20.67
2023-04-30T14:20:27.482Z,20.71
2023-04-30T14:22:54.027Z,20.69
2023-04-30T14:25:20.621Z,20.87
2023-04-30T14:27:47.593Z,20.90
2023-04-30T14:30:14.271Z,20.81
2023-04-30T14:32:40.922Z,20.83
2023-04-30T14:35:08.054Z,20.91
2023-04-30T14:37:34.575Z,20.80
2023-04-30T14:40:02.879Z,20.57
2023-04-30T14:42:29.445Z,20.83
2023-04-30T14:44:55.972Z,21.00
2023-04-30T14:47:22.668Z,20.95
2023-04-30T14:49:52.066Z,20.64
2023-04-30T14:52:19.824Z,20.83
2023-04-30T14:54:46.402Z,20.73
2023-04-30T14:57:13.192Z,20.77
2023-04-30T14:59:40.100Z,20.79
2023-04-30T15:02:07.218Z,20.79
2023-04-30T15:04:34.177Z,20.84
2023-04-30T15:07:00.856Z,20.80
2023-04-30T15:09:27.771Z,20.57
2023-04-30T15:11:54.354Z,20.22
2023-04-30T15:14:20.848Z,20.40
2023-04-30T15:16:47.340Z,20.66
2023-04-30T15:19:13.943Z,20.49
2023-04-30T15:21:40.764Z,20.75
2023-04-30T15:24:07.995Z,20.67
2023-04-30T15:26:34.509Z,20.87
2023-04-30T15:29:01.005Z,20.90
2023-04-30T15:31:27.730Z,20.80
2023-04-30T15:33:54.298Z,20.48
2023-04-30T15:36:23.263Z,20.22
2023-04-30T15:38:49.728Z,20.20
2023-04-30T15:41:16.220Z,19.97
2023-04-30T15:46:09.451Z,20.32
2023-04-30T15:48:36.005Z,20.49
2023-04-30T15:51:03.146Z,20.21
2023-04-30T15:53:29.647Z,20.54
2023-04-30T15:55:57.153Z,20.67
2023-04-30T15:58:24.066Z,20.83
2023-04-30T16:00:50.767Z,20.44
2023-04-30T16:03:17.466Z,20.54
2023-04-30T16:05:44.168Z,20.66
2023-04-30T16:08:10.816Z,20.72
2023-04-30T16:10:37.829Z,20.70
2023-04-30T16:13:04.802Z,20.63
2023-04-30T16:15:32.427Z,20.71
2023-04-30T16:17:59.168Z,20.57
2023-04-30T16:20:27.254Z,20.60
2023-04-30T16:22:54.839Z,20.58
2023-04-30T16:25:22.532Z,20.52
2023-04-30T16:27:49.756Z,20.61
2023-04-30T16:32:42.953Z,20.78
2023-04-30T16:35:09.520Z,20.76
2023-04-30T16:37:36.084Z,20.66
2023-04-30T16:40:02.974Z,20.80
2023-04-30T16:42:30.137Z,20.47
2023-04-30T16:44:57.092Z,20.43
2023-04-30T16:47:23.761Z,20.32
2023-04-30T16:49:50.471Z,20.34
2023-04-30T16:52:17.291Z,20.34
2023-04-30T16:54:44.167Z,20.36
2023-04-30T16:57:10.823Z,20.51
2023-04-30T16:59:37.585Z,20.55
2023-04-30T17:02:06.692Z,20.17
2023-04-30T17:04:33.464Z,20.27
2023-04-30T17:07:00.465Z,20.04
2023-04-30T17:09:26.999Z,19.79
2023-04-30T17:11:53.531Z,19.82
2023-04-30T17:14:20.035Z,19.74
2023-04-30T17:16:47.385Z,19.78
2023-04-30T17:19:14.039Z,19.65
2023-04-30T17:21:40.536Z,19.87
2023-04-30T17:24:07.930Z,19.81
2023-04-30T17:26:34.463Z,19.77
2023-04-30T17:29:01.324Z,19.81
2023-04-30T17:31:30.102Z,19.86
2023-04-30T17:33:56.681Z,19.98
2023-04-30T17:36:24.550Z,19.72
2023-04-30T17:38:51.053Z,19.79
2023-04-30T17:41:18.618Z,19.78
2023-04-30T17:43:45.250Z,19.78
2023-04-30T17:46:11.870Z,19.80
2023-04-30T17:48:38.887Z,19.64
2023-04-30T17:51:05.809Z,19.74
2023-04-30T17:53:32.515Z,19.68
2023-04-30T17:56:00.489Z,19.76
2023-04-30T17:58:26.997Z,19.68
2023-04-30T18:00:54.382Z,19.60
2023-04-30T18:03:21.014Z,19.50
2023-04-30T18:05:47.807Z,19.52
2023-04-30T18:08:14.377Z,19.45
2023-04-30T18:10:40.884Z,19.49
2023-04-30T18:13:07.930Z,19.45
2023-04-30T18:15:34.474Z,19.36
2023-04-30T18:18:01.115Z,19.30
2023-04-30T18:20:28.060Z,19.16
2023-04-30T18:22:54.615Z,19.14
2023-04-30T18:25:21.096Z,19.15
2023-04-30T18:27:47.654Z,19.06
2023-04-30T18:30:14.268Z,19.13
2023-04-30T18:32:42.045Z,19.08
2023-04-30T18:35:09.125Z,18.99
2023-04-30T18:37:35.743Z,18.98
2023-04-30T18:40:02.656Z,18.87
2023-04-30T18:42:30.182Z,18.86
2023-04-30T18:44:57.223Z,18.78
2023-04-30T18:47:24.573Z,18.77
2023-04-30T18:49:51.204Z,18.65
2023-04-30T18:52:18.134Z,18.53
2023-04-30T18:54:44.654Z,18.55
2023-04-30T18:57:14.552Z,18.43
2023-04-30T18:59:41.121Z,18.48
2023-04-30T19:02:07.763Z,18.37
2023-04-30T19:04:34.350Z,18.20
2023-04-30T19:07:00.899Z,18.28
2023-04-30T19:09:27.450Z,18.27
2023-04-30T19:11:54.494Z,18.28
2023-04-30T19:14:20.996Z,18.24
2023-04-30T19:16:47.836Z,18.17
2023-04-30T19:19:14.433Z,18.11
2023-04-30T19:21:41.003Z,18.12
2023-04-30T19:24:07.541Z,18.07
2023-04-30T19:26:35.914Z,18.00
2023-04-30T19:29:03.444Z,17.97
2023-04-30T19:31:30.110Z,18.07
2023-04-30T19:33:59.669Z,18.09
2023-04-30T19:36:26.714Z,18.00
2023-04-30T19:38:53.357Z,17.95
2023-04-30T19:41:19.954Z,17.90
2023-04-30T19:43:46.696Z,17.80
2023-04-30T19:46:13.294Z,17.83
2023-04-30T19:48:40.478Z,17.83
2023-04-30T19:51:07.099Z,17.66
2023-04-30T19:53:33.645Z,17.68
2023-04-30T19:56:00.200Z,17.75
2023-04-30T19:58:26.863Z,17.64
2023-04-30T20:00:54.214Z,17.56
2023-04-30T20:03:21.848Z,17.61
2023-04-30T20:05:48.569Z,17.55
2023-04-30T20:08:15.170Z,17.55
2023-04-30T20:10:42.862Z,17.48
2023-04-30T20:13:09.727Z,17.44
2023-04-30T20:15:36.445Z,17.33
2023-04-30T20:18:03.621Z,17.35
2023-04-30T20:20:30.361Z,17.32
2023-04-30T20:22:57.147Z,17.17
2023-04-30T20:25:29.597Z,17.13
2023-04-30T20:27:56.444Z,17.14
2023-04-30T20:30:23.983Z,17.17
2023-04-30T20:32:50.773Z,17.15
2023-04-30T20:35:17.628Z,17.01
2023-04-30T20:37:44.207Z,17.04
2023-04-30T20:40:11.399Z,16.99
2023-04-30T20:42:40.627Z,17.09
2023-04-30T20:45:07.946Z,17.05
2023-04-30T20:47:34.539Z,17.07
2023-04-30T20:50:01.604Z,16.95
2023-04-30T20:52:28.146Z,16.88
2023-04-30T20:54:54.713Z,16.86
2023-04-30T20:57:21.479Z,16.99
2023-04-30T20:59:48.085Z,16.99
2023-04-30T21:02:14.674Z,17.01
2023-04-30T21:04:41.218Z,16.90
2023-04-30T21:07:07.898Z,16.83
2023-04-30T21:09:35.637Z,16.84
2023-04-30T21:12:05.032Z,16.75
2023-04-30T21:14:32.411Z,16.74
2023-04-30T21:16:59.320Z,16.56
2023-04-30T21:19:26.596Z,16.52
2023-04-30T21:21:53.523Z,16.62
2023-04-30T21:24:20.017Z,16.54
2023-04-30T21:26:46.658Z,16.51
2023-04-30T21:29:13.246Z,16.48
2023-04-30T21:31:39.906Z,16.42
2023-04-30T21:34:06.391Z,16.40
2023-04-30T21:36:33.079Z,16.32
2023-04-30T21:38:59.982Z,16.23
2023-04-30T21:41:28.387Z,16.22
2023-04-30T21:43:55.079Z,16.24
2023-04-30T21:46:22.940Z,16.22
2023-04-30T21:48:49.863Z,16.25
2023-04-30T21:51:17.088Z,16.13
2023-04-30T21:53:46.654Z,16.15
2023-04-30T21:56:13.492Z,16.18
2023-04-30T21:58:40.024Z,16.11
2023-04-30T22:01:06.728Z,16.08
2023-04-30T22:03:36.678Z,16.08
2023-04-30T22:06:03.749Z,16.08
2023-04-30T22:08:30.514Z,16.00
2023-04-30T22:11:00.868Z,15.96
2023-04-30T22:13:28.222Z,15.99
2023-04-30T22:15:55.072Z,16.04
2023-04-30T22:18:22.655Z,16.04
2023-04-30T22:20:49.801Z,15.94
2023-04-30T22:23:16.877Z,15.91
2023-04-30T22:25:43.594Z,15.96
2023-04-30T22:28:10.484Z,15.86
2023-04-30T22:30:37.730Z,15.91
2023-04-30T22:33:04.383Z,15.86
2023-04-30T22:35:32.797Z,15.86
2023-04-30T22:38:00.579Z,15.85
2023-04-30T22:40:27.156Z,15.87
2023-04-30T22:42:54.103Z,15.80
2023-04-30T22:45:20.725Z,15.80
2023-04-30T22:47:47.352Z,15.79
2023-04-30T22:50:14.071Z,15.80
2023-04-30T22:52:40.575Z,15.78
2023-04-30T22:55:07.679Z,15.74
2023-04-30T22:57:34.385Z,15.67
2023-04-30T23:00:01.046Z,15.71
2023-04-30T23:02:28.679Z,15.70
2023-04-30T23:04:55.396Z,15.63
2023-04-30T23:07:21.945Z,15.61
2023-04-30T23:09:49.125Z,15.52
2023-04-30T23:12:15.952Z,15.54
2023-04-30T23:14:42.550Z,15.53
2023-04-30T23:17:09.273Z,15.44
2023-04-30T23:19:36.016Z,15.52
2023-04-30T23:22:02.671Z,15.49
2023-04-30T23:24:35.003Z,15.39
2023-04-30T23:27:03.093Z,15.32
2023-04-30T23:29:29.657Z,15.31
2023-04-30T23:31:56.721Z,15.32
2023-04-30T23:34:23.246Z,15.28
2023-04-30T23:36:49.809Z,15.32
2023-04-30T23:39:16.813Z,15.39
2023-04-30T23:41:43.386Z,15.38
2023-04-30T23:44:09.941Z,15.31
2023-04-30T23:46:36.616Z,15.31
2023-04-30T23:49:03.709Z,15.34
2023-04-30T23:51:32.540Z,15.25
2023-04-30T23:53:59.057Z,15.30
2023-04-30T23:56:25.858Z,15.27
2023-04-30T23:58:52.342Z,15.31
